Terminal Aerodrome Forecast
Issued by NWS Tampa Bay Area, FL

Home | Current Version | Previous Version | Text Only | Print | Product List | Glossary On
Versions: 1 2 3 4 5 6 7 8 9 10 11 12 13 14 15 16 17 18 19 20 21 22 23 24 25 26
588
FTUS42 KTBW 202331
TAFTPA
TAF
KTPA 202331Z 2100/2206 02004KT P6SM BKN040 OVC120
     FM210200 06003KT P6SM FEW040 BKN120
     FM211500 09006KT P6SM FEW030 SCT120
     FM211900 14006KT P6SM SCT045 SCT100
     FM220200 08005KT P6SM FEW045=

USA.gov is the U.S. government's official web portal to all federal, state and local government web resources and services.